Share

Maquoketa, IA

Mt. Murrell (KIACHARL2) Elev 751 ft | 41.98 °N, 90.50 °W | Change Station

Current weather conditions updated 2 seconds ago

Mostly Cloudy
Mostly Cloudy
51.0 °F
Feels Like 51.0 °F
N
0.0
Wind Variable Wind from NW
Gusts 0.0 mph
Sunrise 6:18 AM
Sunset 7:46 PM
Moon Waning Gibbous

Today is forecast to be nearly the same temperature as yesterday.

Pressure 30.20 in
Visibility 10.0 miles
Clouds Mostly Cloudy 2200 ft
Dew Point 37 °F
Humidity 59%
Rainfall 0.00 in
Snow Depth Not available.
UV 5 out of 16
Pollen 9.90 out of 12
Air Quality Not available.
Flu Activity Sporadic
SPECI KDBQ 171729Z 28009KT 10SM BKN022 08/02 A3020 RMK AO2 T00830022

More Conditions Fewer Conditions

Pressure 30.20 in
Visibility 10.0 miles
Clouds Mostly Cloudy 2200 ft
Dew Point 37 °F
Humidity 59%
Rainfall 0.00 in
Snow Depth Not available.
UV 5 out of 16
Pollen 9.90 out of 12
Air Quality Not available.
Flu Activity Sporadic
SPECI KDBQ 171729Z 28009KT 10SM BKN022 08/02 A3020 RMK AO2 T00830022

More Conditions Fewer Conditions

10-Day Forecast

Almanac

Astronomy

Apr. 17, 2014 Rise Set
Actual Time 6:18 AM CDT 7:46 PM CDT
Civil Twilight 5:49 AM CDT 8:15 PM CDT
Nautical Twilight 5:14 AM CDT 8:50 PM CDT
Astronomical Twilight 4:37 AM CDT 9:28 PM CDT
Moon 10:34 PM CDT 7:49 AM CDT
Length of Visible Light 14h 25m
Length of Day
13h 27m
Tomorrow will be 2m 41s longer.
Waning Gibbous, 93% of the Moon is Illuminated
Today
Waning Gibbous
Apr 22
Last Quarter
Apr 29
New
May 6
First Quarter
May 14
Full

Today's Extremes

State Highs State Lows

Community

  • New Day
    New Day
  • Lake Michigan Sunrise
    Lake Michigan Sunrise
  • sunset from izmir, narlıdere
    sunset from izmir, narlıdere
  • oregon cherry
    oregon cherry
  • Sunset over the Bay
    Sunset over the Bay

WunderPhotos

Upload Photos

1,702,079 photos uploaded!

Nearby

Snow Depth

Station Depth Elevation
No new snow has been reported.

Coastal Water Temperatures

Place Temperature
No Stations Reporting

Earthquake Activity

City Distance Mag. Time & Date
No recent earthquake activity has been reported nearby.
Minimum magnitude displayed is 2.5.

Nearby Weather Stations

Station Location Temp. Windchill Dew Point Humidity Wind Precip. Elev Updated Type
Mt. Murrell, Charlotte, IA 51.0 °F - 37 °F 59% NW  at  0.0 mph 0.00 in / hr 751 ft 12:35 PM CDT Rapid Fire
MesoWest GRNMO1 , Grand Mound, IA 50 °F - - - North  at  - 0.00 in / hr 724 ft 11:15 AM CDT MADIS
OLIN, Olin, IA 49.0 °F 42 °F 39 °F 68% West  at  19.6 mph 0.00 in / hr 787 ft 12:35 PM CDT Rapid Fire

Show More Stations Show Fewer Stations

What do you think?

We're not finished. Please let us know what you like, what you don't like, and what you are still missing.